sensor_id;sensor_type;location;lat;lon;timestamp;P1;durP1;ratioP1;P2;durP2;ratioP2
70832;SDS011;58452;59.418;17.962;2022-09-03T00:02:21;5.28;;;3.10;;
70832;SDS011;58452;59.418;17.962;2022-09-03T00:04:54;2.30;;;1.73;;
70832;SDS011;58452;59.418;17.962;2022-09-03T00:07:30;3.50;;;1.67;;
70832;SDS011;58452;59.418;17.962;2022-09-03T00:10:04;3.30;;;1.55;;
70832;SDS011;58452;59.418;17.962;2022-09-03T00:12:35;3.83;;;1.92;;
70832;SDS011;58452;59.418;17.962;2022-09-03T00:15:06;2.28;;;1.45;;
70832;SDS011;58452;59.418;17.962;2022-09-03T00:17:44;2.47;;;1.67;;
70832;SDS011;58452;59.418;17.962;2022-09-03T00:20:21;2.95;;;1.92;;
70832;SDS011;58452;59.418;17.962;2022-09-03T00:22:52;2.78;;;1.55;;
70832;SDS011;58452;59.418;17.962;2022-09-03T00:25:23;2.72;;;1.95;;
70832;SDS011;58452;59.418;17.962;2022-09-03T00:27:54;5.07;;;2.08;;
70832;SDS011;58452;59.418;17.962;2022-09-03T00:30:22;3.85;;;2.22;;
70832;SDS011;58452;59.418;17.962;2022-09-03T00:33:00;2.17;;;1.70;;
70832;SDS011;58452;59.418;17.962;2022-09-03T00:35:36;6.55;;;1.75;;
70832;SDS011;58452;59.418;17.962;2022-09-03T00:38:07;2.17;;;1.45;;
70832;SDS011;58452;59.418;17.962;2022-09-03T00:43:43;2.47;;;1.60;;
70832;SDS011;58452;59.418;17.962;2022-09-03T00:57:28;2.83;;;1.55;;
70832;SDS011;58452;59.418;17.962;2022-09-03T01:00:05;3.40;;;1.25;;
70832;SDS011;58452;59.418;17.962;2022-09-03T01:02:36;4.00;;;1.67;;
70832;SDS011;58452;59.418;17.962;2022-09-03T01:10:45;2.75;;;1.60;;
70832;SDS011;58452;59.418;17.962;2022-09-03T01:13:26;2.42;;;1.40;;
70832;SDS011;58452;59.418;17.962;2022-09-03T01:16:31;2.85;;;1.70;;
70832;SDS011;58452;59.418;17.962;2022-09-03T01:30:44;1.13;;;0.98;;
70832;SDS011;58452;59.418;17.962;2022-09-03T01:38:58;2.22;;;1.80;;
70832;SDS011;58452;59.418;17.962;2022-09-03T01:59:21;1.35;;;1.05;;
70832;SDS011;58452;59.418;17.962;2022-09-03T02:01:55;1.95;;;1.20;;
70832;SDS011;58452;59.418;17.962;2022-09-03T02:04:26;0.80;;;0.75;;
70832;SDS011;58452;59.418;17.962;2022-09-03T02:06:53;1.67;;;1.20;;
70832;SDS011;58452;59.418;17.962;2022-09-03T02:09:21;1.80;;;1.20;;
70832;SDS011;58452;59.418;17.962;2022-09-03T02:11:52;2.75;;;2.13;;
70832;SDS011;58452;59.418;17.962;2022-09-03T02:14:38;1.83;;;1.40;;
70832;SDS011;58452;59.418;17.962;2022-09-03T02:17:04;1.65;;;1.13;;
70832;SDS011;58452;59.418;17.962;2022-09-03T02:19:32;2.28;;;1.23;;
70832;SDS011;58452;59.418;17.962;2022-09-03T02:22:01;2.28;;;1.73;;
70832;SDS011;58452;59.418;17.962;2022-09-03T02:24:27;2.20;;;0.80;;
70832;SDS011;58452;59.418;17.962;2022-09-03T02:26:53;1.95;;;0.93;;
70832;SDS011;58452;59.418;17.962;2022-09-03T02:29:19;2.10;;;1.20;;
70832;SDS011;58452;59.418;17.962;2022-09-03T02:31:45;1.10;;;0.95;;
70832;SDS011;58452;59.418;17.962;2022-09-03T02:34:10;2.72;;;1.00;;
70832;SDS011;58452;59.418;17.962;2022-09-03T02:36:37;4.05;;;1.08;;
70832;SDS011;58452;59.418;17.962;2022-09-03T02:39:05;1.67;;;0.80;;
70832;SDS011;58452;59.418;17.962;2022-09-03T02:41:31;5.20;;;0.93;;
70832;SDS011;58452;59.418;17.962;2022-09-03T02:44:00;0.80;;;0.70;;
70832;SDS011;58452;59.418;17.962;2022-09-03T02:47:12;2.72;;;1.45;;
70832;SDS011;58452;59.418;17.962;2022-09-03T02:49:26;3.15;;;1.13;;
70832;SDS011;58452;59.418;17.962;2022-09-03T02:51:56;2.67;;;1.00;;
70832;SDS011;58452;59.418;17.962;2022-09-03T02:54:23;3.95;;;0.73;;
70832;SDS011;58452;59.418;17.962;2022-09-03T02:56:48;1.48;;;0.98;;
70832;SDS011;58452;59.418;17.962;2022-09-03T02:59:14;2.90;;;1.17;;
70832;SDS011;58452;59.418;17.962;2022-09-03T03:01:41;4.05;;;1.30;;
70832;SDS011;58452;59.418;17.962;2022-09-03T03:04:06;2.08;;;0.98;;
70832;SDS011;58452;59.418;17.962;2022-09-03T03:06:31;1.90;;;1.02;;
70832;SDS011;58452;59.418;17.962;2022-09-03T03:08:57;2.20;;;0.77;;
70832;SDS011;58452;59.418;17.962;2022-09-03T03:11:22;0.88;;;0.50;;
70832;SDS011;58452;59.418;17.962;2022-09-03T03:13:50;2.45;;;0.80;;
70832;SDS011;58452;59.418;17.962;2022-09-03T03:16:16;0.88;;;0.80;;
70832;SDS011;58452;59.418;17.962;2022-09-03T03:18:42;1.17;;;0.90;;
70832;SDS011;58452;59.418;17.962;2022-09-03T03:21:11;2.65;;;0.73;;
70832;SDS011;58452;59.418;17.962;2022-09-03T03:23:38;1.13;;;0.80;;
70832;SDS011;58452;59.418;17.962;2022-09-03T03:26:05;2.92;;;1.33;;
70832;SDS011;58452;59.418;17.962;2022-09-03T03:28:33;3.45;;;1.02;;
70832;SDS011;58452;59.418;17.962;2022-09-03T03:36:05;1.35;;;0.90;;
70832;SDS011;58452;59.418;17.962;2022-09-03T03:38:38;4.63;;;0.80;;
70832;SDS011;58452;59.418;17.962;2022-09-03T03:41:08;2.25;;;1.10;;
70832;SDS011;58452;59.418;17.962;2022-09-03T03:43:35;2.42;;;1.35;;
70832;SDS011;58452;59.418;17.962;2022-09-03T03:46:00;1.35;;;0.88;;
70832;SDS011;58452;59.418;17.962;2022-09-03T03:48:26;2.85;;;0.98;;
70832;SDS011;58452;59.418;17.962;2022-09-03T03:50:51;3.50;;;1.00;;
70832;SDS011;58452;59.418;17.962;2022-09-03T03:53:17;1.65;;;1.13;;
70832;SDS011;58452;59.418;17.962;2022-09-03T03:55:43;1.63;;;1.10;;
70832;SDS011;58452;59.418;17.962;2022-09-03T03:58:08;1.05;;;0.73;;
70832;SDS011;58452;59.418;17.962;2022-09-03T04:00:33;0.63;;;0.63;;
70832;SDS011;58452;59.418;17.962;2022-09-03T04:03:01;1.52;;;0.75;;
70832;SDS011;58452;59.418;17.962;2022-09-03T04:05:28;1.98;;;0.70;;
70832;SDS011;58452;59.418;17.962;2022-09-03T04:07:53;1.38;;;0.93;;
70832;SDS011;58452;59.418;17.962;2022-09-03T04:10:18;2.58;;;0.70;;
70832;SDS011;58452;59.418;17.962;2022-09-03T04:12:44;7.88;;;1.65;;
70832;SDS011;58452;59.418;17.962;2022-09-03T04:15:09;0.70;;;0.70;;
70832;SDS011;58452;59.418;17.962;2022-09-03T04:17:35;1.17;;;1.00;;
70832;SDS011;58452;59.418;17.962;2022-09-03T04:20:00;2.50;;;1.10;;
70832;SDS011;58452;59.418;17.962;2022-09-03T04:22:27;1.30;;;0.90;;
70832;SDS011;58452;59.418;17.962;2022-09-03T04:24:53;3.80;;;0.90;;
70832;SDS011;58452;59.418;17.962;2022-09-03T04:27:18;1.58;;;1.10;;
70832;SDS011;58452;59.418;17.962;2022-09-03T04:29:44;0.77;;;0.77;;
70832;SDS011;58452;59.418;17.962;2022-09-03T04:32:09;1.70;;;0.65;;
70832;SDS011;58452;59.418;17.962;2022-09-03T04:34:53;1.10;;;0.90;;
70832;SDS011;58452;59.418;17.962;2022-09-03T04:37:19;2.15;;;0.80;;
70832;SDS011;58452;59.418;17.962;2022-09-03T04:39:44;1.85;;;0.70;;
70832;SDS011;58452;59.418;17.962;2022-09-03T04:42:10;1.77;;;0.70;;
70832;SDS011;58452;59.418;17.962;2022-09-03T04:44:35;1.00;;;0.80;;
70832;SDS011;58452;59.418;17.962;2022-09-03T04:47:02;1.00;;;0.65;;
70832;SDS011;58452;59.418;17.962;2022-09-03T04:49:31;1.52;;;0.88;;
70832;SDS011;58452;59.418;17.962;2022-09-03T04:51:56;0.82;;;0.82;;
70832;SDS011;58452;59.418;17.962;2022-09-03T04:54:21;1.40;;;0.65;;
70832;SDS011;58452;59.418;17.962;2022-09-03T04:56:47;2.65;;;0.70;;
70832;SDS011;58452;59.418;17.962;2022-09-03T04:59:12;5.38;;;1.25;;
70832;SDS011;58452;59.418;17.962;2022-09-03T05:01:38;1.10;;;0.80;;
70832;SDS011;58452;59.418;17.962;2022-09-03T05:04:04;0.63;;;0.60;;
70832;SDS011;58452;59.418;17.962;2022-09-03T05:06:31;1.77;;;0.82;;
70832;SDS011;58452;59.418;17.962;2022-09-03T05:08:57;3.40;;;1.15;;
70832;SDS011;58452;59.418;17.962;2022-09-03T05:11:24;2.75;;;0.65;;
70832;SDS011;58452;59.418;17.962;2022-09-03T05:13:52;2.05;;;1.10;;
70832;SDS011;58452;59.418;17.962;2022-09-03T05:16:20;1.05;;;0.90;;
70832;SDS011;58452;59.418;17.962;2022-09-03T05:18:46;1.98;;;0.95;;
70832;SDS011;58452;59.418;17.962;2022-09-03T05:21:13;2.45;;;1.10;;
70832;SDS011;58452;59.418;17.962;2022-09-03T05:23:41;6.18;;;1.00;;
70832;SDS011;58452;59.418;17.962;2022-09-03T05:26:09;1.23;;;0.93;;
70832;SDS011;58452;59.418;17.962;2022-09-03T05:28:38;1.55;;;0.90;;
70832;SDS011;58452;59.418;17.962;2022-09-03T05:33:35;1.48;;;1.20;;
70832;SDS011;58452;59.418;17.962;2022-09-03T05:36:03;1.10;;;0.80;;
70832;SDS011;58452;59.418;17.962;2022-09-03T05:38:30;1.40;;;0.70;;
70832;SDS011;58452;59.418;17.962;2022-09-03T05:40:59;2.85;;;1.13;;
70832;SDS011;58452;59.418;17.962;2022-09-03T05:43:26;2.33;;;0.75;;
70832;SDS011;58452;59.418;17.962;2022-09-03T05:45:59;0.80;;;0.73;;
70832;SDS011;58452;59.418;17.962;2022-09-03T05:48:28;1.25;;;0.70;;
70832;SDS011;58452;59.418;17.962;2022-09-03T05:51:00;1.88;;;0.90;;
70832;SDS011;58452;59.418;17.962;2022-09-03T05:53:28;6.55;;;1.45;;
70832;SDS011;58452;59.418;17.962;2022-09-03T05:55:55;2.03;;;0.73;;
70832;SDS011;58452;59.418;17.962;2022-09-03T05:58:35;2.78;;;0.90;;
70832;SDS011;58452;59.418;17.962;2022-09-03T06:01:14;0.93;;;0.75;;
70832;SDS011;58452;59.418;17.962;2022-09-03T06:04:09;1.00;;;0.90;;
70832;SDS011;58452;59.418;17.962;2022-09-03T06:06:37;1.58;;;1.20;;
70832;SDS011;58452;59.418;17.962;2022-09-03T06:09:08;1.50;;;0.80;;
70832;SDS011;58452;59.418;17.962;2022-09-03T06:11:39;1.50;;;1.10;;
70832;SDS011;58452;59.418;17.962;2022-09-03T06:14:07;1.15;;;0.70;;
70832;SDS011;58452;59.418;17.962;2022-09-03T06:16:34;2.67;;;0.90;;
70832;SDS011;58452;59.418;17.962;2022-09-03T06:19:03;0.80;;;0.73;;
70832;SDS011;58452;59.418;17.962;2022-09-03T06:21:33;1.83;;;0.70;;
70832;SDS011;58452;59.418;17.962;2022-09-03T06:24:00;1.73;;;0.77;;
70832;SDS011;58452;59.418;17.962;2022-09-03T06:26:26;0.75;;;0.70;;
70832;SDS011;58452;59.418;17.962;2022-09-03T06:28:52;1.67;;;1.05;;
70832;SDS011;58452;59.418;17.962;2022-09-03T06:31:20;1.48;;;0.95;;
70832;SDS011;58452;59.418;17.962;2022-09-03T06:33:46;1.48;;;1.00;;
70832;SDS011;58452;59.418;17.962;2022-09-03T06:36:13;0.90;;;0.50;;
70832;SDS011;58452;59.418;17.962;2022-09-03T06:38:40;1.35;;;0.90;;
70832;SDS011;58452;59.418;17.962;2022-09-03T06:41:10;1.55;;;0.70;;
70832;SDS011;58452;59.418;17.962;2022-09-03T06:43:49;2.75;;;1.10;;
70832;SDS011;58452;59.418;17.962;2022-09-03T06:46:18;2.20;;;1.20;;
70832;SDS011;58452;59.418;17.962;2022-09-03T06:48:45;3.05;;;0.80;;
70832;SDS011;58452;59.418;17.962;2022-09-03T06:51:12;1.50;;;0.68;;
70832;SDS011;58452;59.418;17.962;2022-09-03T06:53:41;1.92;;;0.85;;
70832;SDS011;58452;59.418;17.962;2022-09-03T06:56:09;1.88;;;0.77;;
70832;SDS011;58452;59.418;17.962;2022-09-03T06:58:37;4.25;;;0.60;;
70832;SDS011;58452;59.418;17.962;2022-09-03T07:01:06;3.03;;;1.00;;
70832;SDS011;58452;59.418;17.962;2022-09-03T07:03:36;0.95;;;0.50;;
70832;SDS011;58452;59.418;17.962;2022-09-03T07:06:03;24.67;;;2.28;;
70832;SDS011;58452;59.418;17.962;2022-09-03T07:08:31;3.20;;;0.50;;
70832;SDS011;58452;59.418;17.962;2022-09-03T07:11:00;2.42;;;0.65;;
70832;SDS011;58452;59.418;17.962;2022-09-03T07:16:00;2.17;;;0.85;;
70832;SDS011;58452;59.418;17.962;2022-09-03T07:18:27;1.75;;;0.38;;
70832;SDS011;58452;59.418;17.962;2022-09-03T07:20:59;0.40;;;0.38;;
70832;SDS011;58452;59.418;17.962;2022-09-03T07:23:26;2.35;;;0.82;;
70832;SDS011;58452;59.418;17.962;2022-09-03T07:25:54;0.82;;;0.50;;
70832;SDS011;58452;59.418;17.962;2022-09-03T07:28:21;1.48;;;0.50;;
70832;SDS011;58452;59.418;17.962;2022-09-03T07:30:47;2.22;;;0.68;;
70832;SDS011;58452;59.418;17.962;2022-09-03T07:33:12;0.65;;;0.25;;
70832;SDS011;58452;59.418;17.962;2022-09-03T07:35:38;3.45;;;0.50;;
70832;SDS011;58452;59.418;17.962;2022-09-03T07:38:03;2.95;;;0.77;;
70832;SDS011;58452;59.418;17.962;2022-09-03T07:40:29;0.70;;;0.30;;
70832;SDS011;58452;59.418;17.962;2022-09-03T07:42:57;4.65;;;0.80;;
70832;SDS011;58452;59.418;17.962;2022-09-03T07:45:28;0.82;;;0.40;;
70832;SDS011;58452;59.418;17.962;2022-09-03T07:47:53;1.65;;;0.98;;
70832;SDS011;58452;59.418;17.962;2022-09-03T07:50:19;3.78;;;0.73;;
70832;SDS011;58452;59.418;17.962;2022-09-03T07:52:44;1.27;;;0.50;;
70832;SDS011;58452;59.418;17.962;2022-09-03T07:55:11;0.50;;;0.47;;
70832;SDS011;58452;59.418;17.962;2022-09-03T07:57:36;1.83;;;0.45;;
70832;SDS011;58452;59.418;17.962;2022-09-03T08:00:02;1.02;;;0.40;;
70832;SDS011;58452;59.418;17.962;2022-09-03T08:02:28;1.40;;;0.50;;
70832;SDS011;58452;59.418;17.962;2022-09-03T08:04:53;0.95;;;0.35;;
70832;SDS011;58452;59.418;17.962;2022-09-03T08:07:18;0.55;;;0.40;;
70832;SDS011;58452;59.418;17.962;2022-09-03T08:09:44;0.28;;;0.28;;
70832;SDS011;58452;59.418;17.962;2022-09-03T08:12:09;1.70;;;0.93;;
70832;SDS011;58452;59.418;17.962;2022-09-03T08:14:34;3.53;;;0.55;;
70832;SDS011;58452;59.418;17.962;2022-09-03T08:17:00;1.27;;;0.30;;
70832;SDS011;58452;59.418;17.962;2022-09-03T08:19:25;0.30;;;0.30;;
70832;SDS011;58452;59.418;17.962;2022-09-03T08:21:51;0.32;;;0.30;;
70832;SDS011;58452;59.418;17.962;2022-09-03T08:24:16;0.80;;;0.22;;
70832;SDS011;58452;59.418;17.962;2022-09-03T08:26:45;2.40;;;0.43;;
70832;SDS011;58452;59.418;17.962;2022-09-03T08:29:10;0.95;;;0.50;;
70832;SDS011;58452;59.418;17.962;2022-09-03T08:31:35;3.33;;;0.65;;
70832;SDS011;58452;59.418;17.962;2022-09-03T08:34:02;0.85;;;0.75;;
70832;SDS011;58452;59.418;17.962;2022-09-03T08:36:31;1.08;;;0.70;;
70832;SDS011;58452;59.418;17.962;2022-09-03T08:38:59;3.03;;;1.13;;
70832;SDS011;58452;59.418;17.962;2022-09-03T08:49:51;1.98;;;0.65;;
70832;SDS011;58452;59.418;17.962;2022-09-03T08:52:37;1.30;;;0.60;;
70832;SDS011;58452;59.418;17.962;2022-09-03T08:55:27;1.35;;;0.65;;
70832;SDS011;58452;59.418;17.962;2022-09-03T08:58:34;1.13;;;0.65;;
70832;SDS011;58452;59.418;17.962;2022-09-03T09:06:43;0.57;;;0.35;;
70832;SDS011;58452;59.418;17.962;2022-09-03T09:15:39;1.23;;;0.52;;
70832;SDS011;58452;59.418;17.962;2022-09-03T09:21:38;0.47;;;0.45;;
70832;SDS011;58452;59.418;17.962;2022-09-03T09:24:12;0.75;;;0.40;;
70832;SDS011;58452;59.418;17.962;2022-09-03T09:26:46;2.00;;;0.30;;
70832;SDS011;58452;59.418;17.962;2022-09-03T09:29:12;0.50;;;0.40;;
70832;SDS011;58452;59.418;17.962;2022-09-03T09:31:39;0.52;;;0.52;;
70832;SDS011;58452;59.418;17.962;2022-09-03T09:34:09;0.82;;;0.55;;
70832;SDS011;58452;59.418;17.962;2022-09-03T09:36:46;0.45;;;0.40;;
70832;SDS011;58452;59.418;17.962;2022-09-03T09:39:13;2.47;;;0.60;;
70832;SDS011;58452;59.418;17.962;2022-09-03T09:41:43;0.57;;;0.40;;
70832;SDS011;58452;59.418;17.962;2022-09-03T09:44:21;6.50;;;0.82;;
70832;SDS011;58452;59.418;17.962;2022-09-03T09:46:49;1.63;;;0.63;;
70832;SDS011;58452;59.418;17.962;2022-09-03T09:49:29;0.70;;;0.20;;
70832;SDS011;58452;59.418;17.962;2022-09-03T09:52:00;0.52;;;0.43;;
70832;SDS011;58452;59.418;17.962;2022-09-03T09:54:27;0.30;;;0.30;;
70832;SDS011;58452;59.418;17.962;2022-09-03T09:56:59;0.75;;;0.22;;
70832;SDS011;58452;59.418;17.962;2022-09-03T09:59:27;0.53;;;0.30;;
70832;SDS011;58452;59.418;17.962;2022-09-03T10:05:00;5.18;;;0.88;;
70832;SDS011;58452;59.418;17.962;2022-09-03T10:07:37;1.02;;;0.30;;
70832;SDS011;58452;59.418;17.962;2022-09-03T10:10:09;0.35;;;0.35;;
70832;SDS011;58452;59.418;17.962;2022-09-03T10:12:44;2.15;;;0.30;;
70832;SDS011;58452;59.418;17.962;2022-09-03T10:15:22;0.28;;;0.25;;
70832;SDS011;58452;59.418;17.962;2022-09-03T10:23:19;4.47;;;0.43;;
70832;SDS011;58452;59.418;17.962;2022-09-03T10:25:59;0.63;;;0.40;;
70832;SDS011;58452;59.418;17.962;2022-09-03T10:28:34;1.10;;;0.68;;
70832;SDS011;58452;59.418;17.962;2022-09-03T10:37:01;2.63;;;0.45;;
70832;SDS011;58452;59.418;17.962;2022-09-03T10:45:12;0.93;;;0.47;;
70832;SDS011;58452;59.418;17.962;2022-09-03T10:50:12;1.95;;;0.85;;
70832;SDS011;58452;59.418;17.962;2022-09-03T10:56:01;0.73;;;0.73;;
70832;SDS011;58452;59.418;17.962;2022-09-03T10:58:39;0.40;;;0.30;;
70832;SDS011;58452;59.418;17.962;2022-09-03T11:03:55;1.08;;;0.60;;
70832;SDS011;58452;59.418;17.962;2022-09-03T11:06:50;0.73;;;0.40;;
70832;SDS011;58452;59.418;17.962;2022-09-03T11:09:20;1.33;;;0.50;;
70832;SDS011;58452;59.418;17.962;2022-09-03T11:11:49;0.25;;;0.25;;
70832;SDS011;58452;59.418;17.962;2022-09-03T11:14:23;1.95;;;0.32;;
70832;SDS011;58452;59.418;17.962;2022-09-03T11:17:01;2.00;;;0.93;;
70832;SDS011;58452;59.418;17.962;2022-09-03T11:19:51;0.52;;;0.40;;
70832;SDS011;58452;59.418;17.962;2022-09-03T11:22:22;4.93;;;0.77;;
70832;SDS011;58452;59.418;17.962;2022-09-03T11:24:52;1.67;;;0.50;;
70832;SDS011;58452;59.418;17.962;2022-09-03T11:27:35;0.43;;;0.32;;
70832;SDS011;58452;59.418;17.962;2022-09-03T11:30:46;1.10;;;0.32;;
70832;SDS011;58452;59.418;17.962;2022-09-03T11:33:13;0.50;;;0.50;;
70832;SDS011;58452;59.418;17.962;2022-09-03T11:35:44;1.38;;;0.30;;
70832;SDS011;58452;59.418;17.962;2022-09-03T11:40:55;0.43;;;0.17;;
70832;SDS011;58452;59.418;17.962;2022-09-03T11:43:36;0.38;;;0.30;;
70832;SDS011;58452;59.418;17.962;2022-09-03T11:48:52;0.73;;;0.40;;
70832;SDS011;58452;59.418;17.962;2022-09-03T11:56:32;0.85;;;0.45;;
70832;SDS011;58452;59.418;17.962;2022-09-03T11:59:01;0.30;;;0.30;;
70832;SDS011;58452;59.418;17.962;2022-09-03T12:01:28;0.70;;;0.40;;
70832;SDS011;58452;59.418;17.962;2022-09-03T12:04:04;0.45;;;0.28;;
70832;SDS011;58452;59.418;17.962;2022-09-03T12:12:10;0.40;;;0.35;;
70832;SDS011;58452;59.418;17.962;2022-09-03T12:17:47;0.47;;;0.40;;
70832;SDS011;58452;59.418;17.962;2022-09-03T12:20:43;0.52;;;0.40;;
70832;SDS011;58452;59.418;17.962;2022-09-03T12:23:30;0.80;;;0.50;;
70832;SDS011;58452;59.418;17.962;2022-09-03T12:26:01;1.30;;;1.02;;
70832;SDS011;58452;59.418;17.962;2022-09-03T12:28:30;0.30;;;0.28;;
70832;SDS011;58452;59.418;17.962;2022-09-03T12:31:16;0.50;;;0.50;;
70832;SDS011;58452;59.418;17.962;2022-09-03T12:33:47;1.10;;;0.40;;
70832;SDS011;58452;59.418;17.962;2022-09-03T12:36:15;0.43;;;0.28;;
70832;SDS011;58452;59.418;17.962;2022-09-03T12:38:41;2.05;;;0.30;;
70832;SDS011;58452;59.418;17.962;2022-09-03T12:41:18;0.90;;;0.43;;
70832;SDS011;58452;59.418;17.962;2022-09-03T12:43:52;0.60;;;0.40;;
70832;SDS011;58452;59.418;17.962;2022-09-03T12:46:27;1.45;;;0.50;;
70832;SDS011;58452;59.418;17.962;2022-09-03T12:49:01;1.90;;;0.50;;
70832;SDS011;58452;59.418;17.962;2022-09-03T12:51:38;0.32;;;0.32;;
70832;SDS011;58452;59.418;17.962;2022-09-03T12:54:07;1.20;;;0.40;;
70832;SDS011;58452;59.418;17.962;2022-09-03T12:56:39;0.93;;;0.30;;
70832;SDS011;58452;59.418;17.962;2022-09-03T12:59:09;0.35;;;0.35;;
70832;SDS011;58452;59.418;17.962;2022-09-03T13:01:42;1.90;;;1.20;;
70832;SDS011;58452;59.418;17.962;2022-09-03T13:04:18;1.25;;;0.50;;
70832;SDS011;58452;59.418;17.962;2022-09-03T13:09:58;0.57;;;0.45;;
70832;SDS011;58452;59.418;17.962;2022-09-03T13:12:29;1.70;;;0.68;;
70832;SDS011;58452;59.418;17.962;2022-09-03T13:15:03;0.25;;;0.25;;
70832;SDS011;58452;59.418;17.962;2022-09-03T13:20:34;0.82;;;0.60;;
70832;SDS011;58452;59.418;17.962;2022-09-03T13:31:51;0.60;;;0.50;;
70832;SDS011;58452;59.418;17.962;2022-09-03T13:34:05;0.70;;;0.50;;
70832;SDS011;58452;59.418;17.962;2022-09-03T13:39:37;0.77;;;0.60;;
70832;SDS011;58452;59.418;17.962;2022-09-03T13:42:20;0.63;;;0.50;;
70832;SDS011;58452;59.418;17.962;2022-09-03T13:44:55;0.38;;;0.30;;
70832;SDS011;58452;59.418;17.962;2022-09-03T13:47:35;0.50;;;0.40;;
70832;SDS011;58452;59.418;17.962;2022-09-03T13:50:37;1.48;;;0.38;;
70832;SDS011;58452;59.418;17.962;2022-09-03T13:56:31;2.55;;;0.60;;
70832;SDS011;58452;59.418;17.962;2022-09-03T13:59:04;2.70;;;0.65;;
70832;SDS011;58452;59.418;17.962;2022-09-03T14:01:49;1.10;;;0.50;;
70832;SDS011;58452;59.418;17.962;2022-09-03T14:04:30;1.55;;;0.80;;
70832;SDS011;58452;59.418;17.962;2022-09-03T14:07:24;1.08;;;0.60;;
70832;SDS011;58452;59.418;17.962;2022-09-03T14:15:51;1.02;;;0.40;;
70832;SDS011;58452;59.418;17.962;2022-09-03T14:21:17;1.40;;;0.20;;
70832;SDS011;58452;59.418;17.962;2022-09-03T14:24:03;0.30;;;0.30;;
70832;SDS011;58452;59.418;17.962;2022-09-03T14:26:31;1.25;;;0.40;;
70832;SDS011;58452;59.418;17.962;2022-09-03T14:29:00;0.30;;;0.30;;
70832;SDS011;58452;59.418;17.962;2022-09-03T14:39:55;0.63;;;0.35;;
70832;SDS011;58452;59.418;17.962;2022-09-03T14:50:59;0.60;;;0.40;;
70832;SDS011;58452;59.418;17.962;2022-09-03T14:53:39;0.65;;;0.35;;
70832;SDS011;58452;59.418;17.962;2022-09-03T15:01:31;1.52;;;0.43;;
70832;SDS011;58452;59.418;17.962;2022-09-03T15:06:38;0.82;;;0.73;;
70832;SDS011;58452;59.418;17.962;2022-09-03T15:12:07;2.70;;;0.80;;
70832;SDS011;58452;59.418;17.962;2022-09-03T15:14:54;2.45;;;0.98;;
70832;SDS011;58452;59.418;17.962;2022-09-03T15:28:23;1.75;;;0.60;;
70832;SDS011;58452;59.418;17.962;2022-09-03T15:31:12;0.40;;;0.40;;
70832;SDS011;58452;59.418;17.962;2022-09-03T15:36:25;2.30;;;0.55;;
70832;SDS011;58452;59.418;17.962;2022-09-03T15:38:59;2.83;;;0.75;;
70832;SDS011;58452;59.418;17.962;2022-09-03T15:44:21;1.33;;;0.52;;
70832;SDS011;58452;59.418;17.962;2022-09-03T15:52:20;1.33;;;0.60;;
70832;SDS011;58452;59.418;17.962;2022-09-03T15:54:57;2.35;;;0.90;;
70832;SDS011;58452;59.418;17.962;2022-09-03T16:00:19;3.20;;;1.05;;
70832;SDS011;58452;59.418;17.962;2022-09-03T16:20:06;1.58;;;1.15;;
70832;SDS011;58452;59.418;17.962;2022-09-03T16:22:37;1.00;;;0.63;;
70832;SDS011;58452;59.418;17.962;2022-09-03T16:25:14;2.75;;;0.77;;
70832;SDS011;58452;59.418;17.962;2022-09-03T16:27:54;1.60;;;0.50;;
70832;SDS011;58452;59.418;17.962;2022-09-03T16:38:25;2.78;;;0.90;;
70832;SDS011;58452;59.418;17.962;2022-09-03T16:54:12;3.08;;;1.35;;
70832;SDS011;58452;59.418;17.962;2022-09-03T17:24:56;1.35;;;1.02;;
70832;SDS011;58452;59.418;17.962;2022-09-03T17:32:39;2.67;;;2.08;;
70832;SDS011;58452;59.418;17.962;2022-09-03T17:38:21;6.72;;;2.72;;
70832;SDS011;58452;59.418;17.962;2022-09-03T17:46:31;3.78;;;2.70;;
70832;SDS011;58452;59.418;17.962;2022-09-03T17:49:12;3.97;;;2.20;;
70832;SDS011;58452;59.418;17.962;2022-09-03T17:51:48;2.67;;;2.17;;
70832;SDS011;58452;59.418;17.962;2022-09-03T17:57:09;3.95;;;2.92;;
70832;SDS011;58452;59.418;17.962;2022-09-03T18:00:03;5.93;;;2.67;;
70832;SDS011;58452;59.418;17.962;2022-09-03T18:02:36;4.70;;;2.53;;
70832;SDS011;58452;59.418;17.962;2022-09-03T18:12:58;4.70;;;1.70;;
70832;SDS011;58452;59.418;17.962;2022-09-03T18:15:54;2.75;;;1.50;;
70832;SDS011;58452;59.418;17.962;2022-09-03T18:18:31;1.90;;;1.25;;
70832;SDS011;58452;59.418;17.962;2022-09-03T18:21:02;0.77;;;0.70;;
70832;SDS011;58452;59.418;17.962;2022-09-03T18:26:44;3.70;;;1.10;;
70832;SDS011;58452;59.418;17.962;2022-09-03T18:29:33;2.42;;;1.00;;
70832;SDS011;58452;59.418;17.962;2022-09-03T18:32:22;1.80;;;0.80;;
70832;SDS011;58452;59.418;17.962;2022-09-03T18:35:06;1.30;;;0.77;;
70832;SDS011;58452;59.418;17.962;2022-09-03T18:37:51;4.22;;;0.95;;
70832;SDS011;58452;59.418;17.962;2022-09-03T18:40:45;1.08;;;0.95;;
70832;SDS011;58452;59.418;17.962;2022-09-03T18:50:08;2.38;;;1.05;;
70832;SDS011;58452;59.418;17.962;2022-09-03T18:52:56;2.55;;;1.38;;
70832;SDS011;58452;59.418;17.962;2022-09-03T18:56:06;4.15;;;1.50;;
70832;SDS011;58452;59.418;17.962;2022-09-03T19:02:26;4.28;;;1.35;;
70832;SDS011;58452;59.418;17.962;2022-09-03T19:05:23;1.50;;;1.17;;
70832;SDS011;58452;59.418;17.962;2022-09-03T19:11:07;1.42;;;1.27;;
70832;SDS011;58452;59.418;17.962;2022-09-03T19:14:03;4.13;;;1.42;;
70832;SDS011;58452;59.418;17.962;2022-09-03T19:23:12;5.13;;;2.65;;
70832;SDS011;58452;59.418;17.962;2022-09-03T19:25:58;7.53;;;5.53;;
70832;SDS011;58452;59.418;17.962;2022-09-03T19:29:02;8.50;;;5.00;;
70832;SDS011;58452;59.418;17.962;2022-09-03T19:32:02;9.38;;;6.45;;
70832;SDS011;58452;59.418;17.962;2022-09-03T19:35:11;5.95;;;4.50;;
70832;SDS011;58452;59.418;17.962;2022-09-03T19:47:02;10.43;;;4.90;;
70832;SDS011;58452;59.418;17.962;2022-09-03T19:55:34;6.88;;;4.00;;
70832;SDS011;58452;59.418;17.962;2022-09-03T19:58:22;3.83;;;3.40;;
70832;SDS011;58452;59.418;17.962;2022-09-03T20:01:09;5.22;;;4.18;;
70832;SDS011;58452;59.418;17.962;2022-09-03T20:03:54;10.73;;;5.97;;
70832;SDS011;58452;59.418;17.962;2022-09-03T20:06:41;6.47;;;5.32;;
70832;SDS011;58452;59.418;17.962;2022-09-03T20:09:28;5.90;;;4.97;;
70832;SDS011;58452;59.418;17.962;2022-09-03T20:12:16;5.65;;;3.78;;
70832;SDS011;58452;59.418;17.962;2022-09-03T20:14:45;7.45;;;4.30;;
70832;SDS011;58452;59.418;17.962;2022-09-03T20:17:21;6.00;;;5.00;;
70832;SDS011;58452;59.418;17.962;2022-09-03T20:20:10;5.47;;;4.25;;
70832;SDS011;58452;59.418;17.962;2022-09-03T20:22:49;5.32;;;3.83;;
70832;SDS011;58452;59.418;17.962;2022-09-03T20:28:21;4.40;;;3.10;;
70832;SDS011;58452;59.418;17.962;2022-09-03T20:36:18;6.35;;;4.03;;
70832;SDS011;58452;59.418;17.962;2022-09-03T20:41:29;6.35;;;3.33;;
70832;SDS011;58452;59.418;17.962;2022-09-03T20:52:16;45.00;;;25.13;;
70832;SDS011;58452;59.418;17.962;2022-09-03T20:54:52;22.35;;;11.32;;
70832;SDS011;58452;59.418;17.962;2022-09-03T20:57:32;15.60;;;7.20;;
70832;SDS011;58452;59.418;17.962;2022-09-03T21:00:09;7.05;;;3.38;;
70832;SDS011;58452;59.418;17.962;2022-09-03T21:08:34;7.63;;;3.53;;
70832;SDS011;58452;59.418;17.962;2022-09-03T21:23:27;5.45;;;2.65;;
70832;SDS011;58452;59.418;17.962;2022-09-03T21:31:34;6.82;;;3.25;;
70832;SDS011;58452;59.418;17.962;2022-09-03T21:34:08;7.40;;;3.10;;
70832;SDS011;58452;59.418;17.962;2022-09-03T21:36:37;3.03;;;2.50;;
70832;SDS011;58452;59.418;17.962;2022-09-03T21:41:59;3.22;;;2.47;;